sensor_id;sensor_type;location;lat;lon;timestamp;P1;durP1;ratioP1;P2;durP2;ratioP2
22949;SDS011;11641;51.018;4.474;2022-08-01T00:02:27;7.05;;;2.40;;
22949;SDS011;11641;51.018;4.474;2022-08-01T00:04:54;7.20;;;2.80;;
22949;SDS011;11641;51.018;4.474;2022-08-01T00:07:23;6.68;;;2.50;;
22949;SDS011;11641;51.018;4.474;2022-08-01T00:09:49;7.43;;;2.53;;
22949;SDS011;11641;51.018;4.474;2022-08-01T00:12:17;7.30;;;2.60;;
22949;SDS011;11641;51.018;4.474;2022-08-01T00:14:46;7.38;;;3.00;;
22949;SDS011;11641;51.018;4.474;2022-08-01T00:17:13;9.52;;;3.05;;
22949;SDS011;11641;51.018;4.474;2022-08-01T00:19:41;10.82;;;3.47;;
22949;SDS011;11641;51.018;4.474;2022-08-01T00:22:06;8.75;;;3.42;;
22949;SDS011;11641;51.018;4.474;2022-08-01T00:24:32;7.32;;;3.15;;
22949;SDS011;11641;51.018;4.474;2022-08-01T00:26:58;8.88;;;3.38;;
22949;SDS011;11641;51.018;4.474;2022-08-01T00:29:25;8.13;;;3.50;;
22949;SDS011;11641;51.018;4.474;2022-08-01T00:31:53;8.25;;;3.60;;
22949;SDS011;11641;51.018;4.474;2022-08-01T00:34:23;6.82;;;3.65;;
22949;SDS011;11641;51.018;4.474;2022-08-01T00:36:48;10.18;;;4.05;;
22949;SDS011;11641;51.018;4.474;2022-08-01T00:39:17;7.78;;;4.15;;
22949;SDS011;11641;51.018;4.474;2022-08-01T00:41:43;10.25;;;4.13;;
22949;SDS011;11641;51.018;4.474;2022-08-01T00:44:08;8.60;;;3.88;;
22949;SDS011;11641;51.018;4.474;2022-08-01T00:46:34;12.38;;;3.80;;
22949;SDS011;11641;51.018;4.474;2022-08-01T00:49:02;11.02;;;3.95;;
22949;SDS011;11641;51.018;4.474;2022-08-01T00:51:28;8.90;;;4.07;;
22949;SDS011;11641;51.018;4.474;2022-08-01T00:53:54;9.40;;;4.60;;
22949;SDS011;11641;51.018;4.474;2022-08-01T00:56:20;8.07;;;4.30;;
22949;SDS011;11641;51.018;4.474;2022-08-01T00:58:48;10.35;;;4.45;;
22949;SDS011;11641;51.018;4.474;2022-08-01T01:01:15;7.28;;;3.85;;
22949;SDS011;11641;51.018;4.474;2022-08-01T01:03:41;8.98;;;4.40;;
22949;SDS011;11641;51.018;4.474;2022-08-01T01:11:28;9.95;;;4.38;;
22949;SDS011;11641;51.018;4.474;2022-08-01T01:13:59;9.18;;;4.18;;
22949;SDS011;11641;51.018;4.474;2022-08-01T01:19:01;7.80;;;4.10;;
22949;SDS011;11641;51.018;4.474;2022-08-01T01:29:46;8.82;;;4.60;;
22949;SDS011;11641;51.018;4.474;2022-08-01T01:32:23;8.88;;;4.75;;
22949;SDS011;11641;51.018;4.474;2022-08-01T01:35:02;9.45;;;5.35;;
22949;SDS011;11641;51.018;4.474;2022-08-01T01:37:39;9.73;;;4.78;;
22949;SDS011;11641;51.018;4.474;2022-08-01T01:40:05;8.60;;;4.53;;
22949;SDS011;11641;51.018;4.474;2022-08-01T01:42:35;7.60;;;4.55;;
22949;SDS011;11641;51.018;4.474;2022-08-01T01:45:04;12.77;;;6.50;;
22949;SDS011;11641;51.018;4.474;2022-08-01T01:47:32;14.95;;;7.70;;
22949;SDS011;11641;51.018;4.474;2022-08-01T01:49:59;16.55;;;8.15;;
22949;SDS011;11641;51.018;4.474;2022-08-01T01:52:26;15.40;;;9.13;;
22949;SDS011;11641;51.018;4.474;2022-08-01T01:54:53;17.45;;;9.75;;
22949;SDS011;11641;51.018;4.474;2022-08-01T01:57:21;20.98;;;9.90;;
22949;SDS011;11641;51.018;4.474;2022-08-01T01:59:49;19.55;;;11.48;;
22949;SDS011;11641;51.018;4.474;2022-08-01T02:02:18;19.50;;;10.20;;
22949;SDS011;11641;51.018;4.474;2022-08-01T02:04:45;22.88;;;10.77;;
22949;SDS011;11641;51.018;4.474;2022-08-01T02:07:16;16.83;;;9.77;;
22949;SDS011;11641;51.018;4.474;2022-08-01T02:09:44;21.65;;;10.20;;
22949;SDS011;11641;51.018;4.474;2022-08-01T02:12:12;25.50;;;10.55;;
22949;SDS011;11641;51.018;4.474;2022-08-01T02:14:42;19.25;;;10.75;;
22949;SDS011;11641;51.018;4.474;2022-08-01T02:17:10;17.40;;;10.38;;
22949;SDS011;11641;51.018;4.474;2022-08-01T02:19:40;21.17;;;10.65;;
22949;SDS011;11641;51.018;4.474;2022-08-01T02:22:10;20.45;;;10.90;;
22949;SDS011;11641;51.018;4.474;2022-08-01T02:30:26;21.40;;;11.82;;
22949;SDS011;11641;51.018;4.474;2022-08-01T02:33:08;23.30;;;11.60;;
22949;SDS011;11641;51.018;4.474;2022-08-01T02:35:41;22.52;;;9.98;;
22949;SDS011;11641;51.018;4.474;2022-08-01T02:38:14;21.05;;;11.85;;
22949;SDS011;11641;51.018;4.474;2022-08-01T02:40:41;21.85;;;11.05;;
22949;SDS011;11641;51.018;4.474;2022-08-01T02:43:11;21.52;;;11.23;;
22949;SDS011;11641;51.018;4.474;2022-08-01T02:45:42;23.48;;;11.70;;
22949;SDS011;11641;51.018;4.474;2022-08-01T02:48:13;27.48;;;11.95;;
22949;SDS011;11641;51.018;4.474;2022-08-01T02:50:42;23.65;;;12.15;;
22949;SDS011;11641;51.018;4.474;2022-08-01T02:53:09;30.20;;;12.73;;
22949;SDS011;11641;51.018;4.474;2022-08-01T02:55:38;24.77;;;12.07;;
22949;SDS011;11641;51.018;4.474;2022-08-01T02:58:06;25.58;;;13.20;;
22949;SDS011;11641;51.018;4.474;2022-08-01T03:00:33;27.83;;;13.85;;
22949;SDS011;11641;51.018;4.474;2022-08-01T03:03:00;36.08;;;13.18;;
22949;SDS011;11641;51.018;4.474;2022-08-01T03:05:28;31.60;;;13.32;;
22949;SDS011;11641;51.018;4.474;2022-08-01T03:07:55;25.13;;;13.95;;
22949;SDS011;11641;51.018;4.474;2022-08-01T03:10:28;29.95;;;13.98;;
22949;SDS011;11641;51.018;4.474;2022-08-01T03:12:57;28.55;;;14.73;;
22949;SDS011;11641;51.018;4.474;2022-08-01T03:15:25;26.33;;;14.85;;
22949;SDS011;11641;51.018;4.474;2022-08-01T03:17:52;29.40;;;15.68;;
22949;SDS011;11641;51.018;4.474;2022-08-01T03:20:22;29.40;;;14.63;;
22949;SDS011;11641;51.018;4.474;2022-08-01T03:22:53;25.27;;;12.88;;
22949;SDS011;11641;51.018;4.474;2022-08-01T03:25:19;20.77;;;11.65;;
22949;SDS011;11641;51.018;4.474;2022-08-01T03:27:51;16.40;;;10.48;;
22949;SDS011;11641;51.018;4.474;2022-08-01T03:30:22;19.23;;;10.70;;
22949;SDS011;11641;51.018;4.474;2022-08-01T03:32:48;16.95;;;10.57;;
22949;SDS011;11641;51.018;4.474;2022-08-01T03:35:17;18.58;;;10.75;;
22949;SDS011;11641;51.018;4.474;2022-08-01T03:37:44;21.98;;;10.60;;
22949;SDS011;11641;51.018;4.474;2022-08-01T03:40:25;16.63;;;10.25;;
22949;SDS011;11641;51.018;4.474;2022-08-01T03:42:58;20.30;;;10.88;;
22949;SDS011;11641;51.018;4.474;2022-08-01T03:45:30;20.17;;;10.10;;
22949;SDS011;11641;51.018;4.474;2022-08-01T03:48:00;18.42;;;10.10;;
22949;SDS011;11641;51.018;4.474;2022-08-01T03:50:30;20.00;;;10.18;;
22949;SDS011;11641;51.018;4.474;2022-08-01T03:52:59;18.55;;;10.23;;
22949;SDS011;11641;51.018;4.474;2022-08-01T03:55:30;17.77;;;10.23;;
22949;SDS011;11641;51.018;4.474;2022-08-01T03:57:59;18.77;;;10.88;;
22949;SDS011;11641;51.018;4.474;2022-08-01T04:00:26;18.45;;;10.35;;
22949;SDS011;11641;51.018;4.474;2022-08-01T04:02:55;16.95;;;10.80;;
22949;SDS011;11641;51.018;4.474;2022-08-01T04:05:21;19.98;;;10.15;;
22949;SDS011;11641;51.018;4.474;2022-08-01T04:07:48;16.88;;;10.65;;
22949;SDS011;11641;51.018;4.474;2022-08-01T04:10:20;21.58;;;10.27;;
22949;SDS011;11641;51.018;4.474;2022-08-01T04:12:49;18.52;;;10.80;;
22949;SDS011;11641;51.018;4.474;2022-08-01T04:15:18;17.77;;;10.07;;
22949;SDS011;11641;51.018;4.474;2022-08-01T04:17:45;21.33;;;11.65;;
22949;SDS011;11641;51.018;4.474;2022-08-01T04:20:14;15.60;;;9.77;;
22949;SDS011;11641;51.018;4.474;2022-08-01T04:22:40;15.63;;;10.25;;
22949;SDS011;11641;51.018;4.474;2022-08-01T04:25:11;21.52;;;10.68;;
22949;SDS011;11641;51.018;4.474;2022-08-01T04:27:42;19.35;;;9.45;;
22949;SDS011;11641;51.018;4.474;2022-08-01T04:30:13;18.05;;;9.68;;
22949;SDS011;11641;51.018;4.474;2022-08-01T04:32:43;15.32;;;9.70;;
22949;SDS011;11641;51.018;4.474;2022-08-01T04:35:12;18.02;;;9.80;;
22949;SDS011;11641;51.018;4.474;2022-08-01T04:37:42;14.80;;;9.02;;
22949;SDS011;11641;51.018;4.474;2022-08-01T04:40:10;18.10;;;9.18;;
22949;SDS011;11641;51.018;4.474;2022-08-01T04:42:37;14.02;;;9.25;;
22949;SDS011;11641;51.018;4.474;2022-08-01T04:45:03;17.02;;;9.15;;
22949;SDS011;11641;51.018;4.474;2022-08-01T04:47:30;13.57;;;8.50;;
22949;SDS011;11641;51.018;4.474;2022-08-01T04:50:05;13.88;;;8.73;;
22949;SDS011;11641;51.018;4.474;2022-08-01T04:52:36;14.27;;;8.52;;
22949;SDS011;11641;51.018;4.474;2022-08-01T04:55:03;14.95;;;7.78;;
22949;SDS011;11641;51.018;4.474;2022-08-01T04:57:31;16.45;;;8.88;;
22949;SDS011;11641;51.018;4.474;2022-08-01T05:00:02;11.65;;;7.47;;
22949;SDS011;11641;51.018;4.474;2022-08-01T05:02:29;13.48;;;7.80;;
22949;SDS011;11641;51.018;4.474;2022-08-01T05:04:54;10.85;;;6.90;;
22949;SDS011;11641;51.018;4.474;2022-08-01T05:07:22;10.50;;;6.57;;
22949;SDS011;11641;51.018;4.474;2022-08-01T05:09:49;13.50;;;7.15;;
22949;SDS011;11641;51.018;4.474;2022-08-01T05:12:17;13.85;;;5.50;;
22949;SDS011;11641;51.018;4.474;2022-08-01T05:14:46;11.85;;;6.10;;
22949;SDS011;11641;51.018;4.474;2022-08-01T05:17:12;11.13;;;5.45;;
22949;SDS011;11641;51.018;4.474;2022-08-01T05:19:44;11.88;;;6.28;;
22949;SDS011;11641;51.018;4.474;2022-08-01T05:22:11;10.25;;;5.85;;
22949;SDS011;11641;51.018;4.474;2022-08-01T05:24:39;9.75;;;4.90;;
22949;SDS011;11641;51.018;4.474;2022-08-01T05:27:06;11.43;;;6.25;;
22949;SDS011;11641;51.018;4.474;2022-08-01T05:29:33;10.07;;;6.07;;
22949;SDS011;11641;51.018;4.474;2022-08-01T05:31:59;9.98;;;5.50;;
22949;SDS011;11641;51.018;4.474;2022-08-01T05:34:26;11.40;;;5.38;;
22949;SDS011;11641;51.018;4.474;2022-08-01T05:36:53;12.45;;;5.45;;
22949;SDS011;11641;51.018;4.474;2022-08-01T05:39:22;17.50;;;6.20;;
22949;SDS011;11641;51.018;4.474;2022-08-01T05:41:47;12.57;;;6.18;;
22949;SDS011;11641;51.018;4.474;2022-08-01T05:44:13;10.52;;;6.18;;
22949;SDS011;11641;51.018;4.474;2022-08-01T05:46:39;7.72;;;5.30;;
22949;SDS011;11641;51.018;4.474;2022-08-01T05:49:06;12.20;;;5.65;;
22949;SDS011;11641;51.018;4.474;2022-08-01T05:51:35;11.27;;;5.85;;
22949;SDS011;11641;51.018;4.474;2022-08-01T05:54:00;14.68;;;6.25;;
22949;SDS011;11641;51.018;4.474;2022-08-01T05:56:29;12.55;;;6.00;;
22949;SDS011;11641;51.018;4.474;2022-08-01T05:58:54;11.27;;;6.53;;
22949;SDS011;11641;51.018;4.474;2022-08-01T06:01:20;12.07;;;6.30;;
22949;SDS011;11641;51.018;4.474;2022-08-01T06:03:46;16.10;;;6.47;;
22949;SDS011;11641;51.018;4.474;2022-08-01T06:06:15;8.50;;;6.00;;
22949;SDS011;11641;51.018;4.474;2022-08-01T06:08:41;11.32;;;5.28;;
22949;SDS011;11641;51.018;4.474;2022-08-01T06:11:07;8.10;;;5.85;;
22949;SDS011;11641;51.018;4.474;2022-08-01T06:13:33;7.28;;;5.78;;
22949;SDS011;11641;51.018;4.474;2022-08-01T06:16:02;10.35;;;5.40;;
22949;SDS011;11641;51.018;4.474;2022-08-01T06:18:28;8.05;;;5.40;;
22949;SDS011;11641;51.018;4.474;2022-08-01T06:20:54;12.25;;;4.90;;
22949;SDS011;11641;51.018;4.474;2022-08-01T06:23:21;10.23;;;4.15;;
22949;SDS011;11641;51.018;4.474;2022-08-01T06:25:51;8.15;;;4.40;;
22949;SDS011;11641;51.018;4.474;2022-08-01T06:28:18;7.22;;;4.57;;
22949;SDS011;11641;51.018;4.474;2022-08-01T06:30:46;6.90;;;4.25;;
22949;SDS011;11641;51.018;4.474;2022-08-01T06:33:15;6.90;;;3.85;;
22949;SDS011;11641;51.018;4.474;2022-08-01T06:35:41;4.82;;;3.70;;
22949;SDS011;11641;51.018;4.474;2022-08-01T06:38:08;8.00;;;3.60;;
22949;SDS011;11641;51.018;4.474;2022-08-01T06:40:38;6.93;;;4.00;;
22949;SDS011;11641;51.018;4.474;2022-08-01T06:43:04;8.32;;;3.58;;
22949;SDS011;11641;51.018;4.474;2022-08-01T06:45:30;9.02;;;3.80;;
22949;SDS011;11641;51.018;4.474;2022-08-01T06:47:56;8.82;;;3.70;;
22949;SDS011;11641;51.018;4.474;2022-08-01T06:50:24;8.10;;;3.92;;
22949;SDS011;11641;51.018;4.474;2022-08-01T06:52:50;6.80;;;4.07;;
22949;SDS011;11641;51.018;4.474;2022-08-01T06:55:19;7.80;;;4.07;;
22949;SDS011;11641;51.018;4.474;2022-08-01T06:57:48;4.78;;;3.40;;
22949;SDS011;11641;51.018;4.474;2022-08-01T07:00:17;5.47;;;3.53;;
22949;SDS011;11641;51.018;4.474;2022-08-01T07:02:47;7.00;;;3.22;;
22949;SDS011;11641;51.018;4.474;2022-08-01T07:05:16;6.88;;;3.38;;
22949;SDS011;11641;51.018;4.474;2022-08-01T07:07:42;5.57;;;3.35;;
22949;SDS011;11641;51.018;4.474;2022-08-01T07:10:15;5.50;;;3.58;;
22949;SDS011;11641;51.018;4.474;2022-08-01T07:12:41;7.88;;;3.35;;
22949;SDS011;11641;51.018;4.474;2022-08-01T07:15:08;6.88;;;3.33;;
22949;SDS011;11641;51.018;4.474;2022-08-01T07:17:38;4.60;;;3.35;;
22949;SDS011;11641;51.018;4.474;2022-08-01T07:20:06;7.38;;;3.58;;
22949;SDS011;11641;51.018;4.474;2022-08-01T07:22:37;5.55;;;3.13;;
22949;SDS011;11641;51.018;4.474;2022-08-01T07:25:05;6.13;;;3.38;;
22949;SDS011;11641;51.018;4.474;2022-08-01T07:27:32;4.78;;;3.60;;
22949;SDS011;11641;51.018;4.474;2022-08-01T07:29:58;5.55;;;3.67;;
22949;SDS011;11641;51.018;4.474;2022-08-01T07:32:24;10.73;;;3.58;;
22949;SDS011;11641;51.018;4.474;2022-08-01T07:34:52;5.50;;;3.20;;
22949;SDS011;11641;51.018;4.474;2022-08-01T07:37:21;4.28;;;2.90;;
22949;SDS011;11641;51.018;4.474;2022-08-01T07:39:49;6.63;;;2.50;;
22949;SDS011;11641;51.018;4.474;2022-08-01T07:42:17;4.18;;;2.30;;
22949;SDS011;11641;51.018;4.474;2022-08-01T07:44:44;3.30;;;2.28;;
22949;SDS011;11641;51.018;4.474;2022-08-01T07:47:10;3.40;;;2.00;;
22949;SDS011;11641;51.018;4.474;2022-08-01T07:49:41;5.30;;;2.20;;
22949;SDS011;11641;51.018;4.474;2022-08-01T07:52:08;4.57;;;1.85;;
22949;SDS011;11641;51.018;4.474;2022-08-01T07:54:35;3.65;;;1.95;;
22949;SDS011;11641;51.018;4.474;2022-08-01T07:57:02;7.53;;;2.38;;
22949;SDS011;11641;51.018;4.474;2022-08-01T07:59:28;4.38;;;2.10;;
22949;SDS011;11641;51.018;4.474;2022-08-01T08:01:54;3.72;;;2.15;;
22949;SDS011;11641;51.018;4.474;2022-08-01T08:04:22;5.10;;;2.30;;
22949;SDS011;11641;51.018;4.474;2022-08-01T08:06:49;5.82;;;2.47;;
22949;SDS011;11641;51.018;4.474;2022-08-01T08:09:18;4.25;;;2.38;;
22949;SDS011;11641;51.018;4.474;2022-08-01T08:11:44;5.95;;;2.60;;
22949;SDS011;11641;51.018;4.474;2022-08-01T08:14:10;5.15;;;2.25;;
22949;SDS011;11641;51.018;4.474;2022-08-01T08:16:37;5.32;;;2.28;;
22949;SDS011;11641;51.018;4.474;2022-08-01T08:19:03;2.75;;;1.80;;
22949;SDS011;11641;51.018;4.474;2022-08-01T08:21:29;5.22;;;2.20;;
22949;SDS011;11641;51.018;4.474;2022-08-01T08:23:55;2.88;;;2.00;;
22949;SDS011;11641;51.018;4.474;2022-08-01T08:26:40;3.53;;;1.70;;
22949;SDS011;11641;51.018;4.474;2022-08-01T08:29:06;3.58;;;1.40;;
22949;SDS011;11641;51.018;4.474;2022-08-01T08:31:32;3.78;;;1.50;;
22949;SDS011;11641;51.018;4.474;2022-08-01T08:33:58;3.08;;;1.50;;
22949;SDS011;11641;51.018;4.474;2022-08-01T08:36:26;6.68;;;1.58;;
22949;SDS011;11641;51.018;4.474;2022-08-01T08:38:52;4.13;;;1.92;;
22949;SDS011;11641;51.018;4.474;2022-08-01T08:41:18;3.00;;;1.60;;
22949;SDS011;11641;51.018;4.474;2022-08-01T08:43:46;2.50;;;1.80;;
22949;SDS011;11641;51.018;4.474;2022-08-01T08:46:14;6.57;;;1.77;;
22949;SDS011;11641;51.018;4.474;2022-08-01T08:48:45;3.17;;;1.60;;
22949;SDS011;11641;51.018;4.474;2022-08-01T08:51:11;5.55;;;1.85;;
22949;SDS011;11641;51.018;4.474;2022-08-01T08:53:41;4.97;;;1.80;;
22949;SDS011;11641;51.018;4.474;2022-08-01T08:56:09;4.28;;;2.08;;
22949;SDS011;11641;51.018;4.474;2022-08-01T08:58:37;3.25;;;2.08;;
22949;SDS011;11641;51.018;4.474;2022-08-01T09:01:06;2.40;;;1.88;;
22949;SDS011;11641;51.018;4.474;2022-08-01T09:03:33;4.38;;;2.20;;
22949;SDS011;11641;51.018;4.474;2022-08-01T09:05:59;3.58;;;2.20;;
22949;SDS011;11641;51.018;4.474;2022-08-01T09:08:27;2.42;;;1.90;;
22949;SDS011;11641;51.018;4.474;2022-08-01T09:10:57;4.55;;;2.20;;
22949;SDS011;11641;51.018;4.474;2022-08-01T09:13:25;2.70;;;1.70;;
22949;SDS011;11641;51.018;4.474;2022-08-01T09:15:53;2.30;;;1.70;;
22949;SDS011;11641;51.018;4.474;2022-08-01T09:18:36;4.53;;;1.75;;
22949;SDS011;11641;51.018;4.474;2022-08-01T09:23:35;2.42;;;1.30;;
22949;SDS011;11641;51.018;4.474;2022-08-01T09:26:07;3.30;;;1.23;;
22949;SDS011;11641;51.018;4.474;2022-08-01T09:28:42;1.55;;;1.08;;
22949;SDS011;11641;51.018;4.474;2022-08-01T09:31:10;2.80;;;0.80;;
22949;SDS011;11641;51.018;4.474;2022-08-01T09:33:53;2.53;;;1.08;;
22949;SDS011;11641;51.018;4.474;2022-08-01T09:36:26;2.22;;;1.20;;
22949;SDS011;11641;51.018;4.474;2022-08-01T09:39:13;2.17;;;0.90;;
22949;SDS011;11641;51.018;4.474;2022-08-01T09:41:41;2.90;;;1.30;;
22949;SDS011;11641;51.018;4.474;2022-08-01T09:44:07;2.92;;;1.20;;
22949;SDS011;11641;51.018;4.474;2022-08-01T09:46:33;1.67;;;1.20;;
22949;SDS011;11641;51.018;4.474;2022-08-01T09:49:03;1.75;;;1.20;;
22949;SDS011;11641;51.018;4.474;2022-08-01T09:51:37;2.33;;;1.20;;
22949;SDS011;11641;51.018;4.474;2022-08-01T09:54:07;2.67;;;1.30;;
22949;SDS011;11641;51.018;4.474;2022-08-01T09:56:37;2.38;;;1.00;;
22949;SDS011;11641;51.018;4.474;2022-08-01T09:59:07;6.22;;;1.20;;
22949;SDS011;11641;51.018;4.474;2022-08-01T10:01:52;2.35;;;1.17;;
22949;SDS011;11641;51.018;4.474;2022-08-01T10:04:21;2.92;;;1.10;;
22949;SDS011;11641;51.018;4.474;2022-08-01T10:06:49;3.25;;;1.00;;
22949;SDS011;11641;51.018;4.474;2022-08-01T10:09:40;2.42;;;1.00;;
22949;SDS011;11641;51.018;4.474;2022-08-01T10:12:07;3.78;;;0.90;;
22949;SDS011;11641;51.018;4.474;2022-08-01T10:14:35;3.17;;;0.80;;
22949;SDS011;11641;51.018;4.474;2022-08-01T10:17:02;3.85;;;0.82;;
22949;SDS011;11641;51.018;4.474;2022-08-01T10:19:31;3.38;;;0.80;;
22949;SDS011;11641;51.018;4.474;2022-08-01T10:22:00;6.57;;;1.10;;
22949;SDS011;11641;51.018;4.474;2022-08-01T10:24:29;2.08;;;0.88;;
22949;SDS011;11641;51.018;4.474;2022-08-01T10:27:04;2.58;;;0.70;;
22949;SDS011;11641;51.018;4.474;2022-08-01T10:29:35;2.88;;;0.70;;
22949;SDS011;11641;51.018;4.474;2022-08-01T10:32:06;4.15;;;0.63;;
22949;SDS011;11641;51.018;4.474;2022-08-01T10:34:34;3.55;;;0.70;;
22949;SDS011;11641;51.018;4.474;2022-08-01T10:37:01;2.13;;;0.73;;
22949;SDS011;11641;51.018;4.474;2022-08-01T10:39:30;2.22;;;0.70;;
22949;SDS011;11641;51.018;4.474;2022-08-01T10:41:56;2.72;;;0.50;;
22949;SDS011;11641;51.018;4.474;2022-08-01T10:44:23;2.20;;;0.73;;
22949;SDS011;11641;51.018;4.474;2022-08-01T10:46:55;3.20;;;0.60;;
22949;SDS011;11641;51.018;4.474;2022-08-01T10:49:27;4.32;;;0.70;;
22949;SDS011;11641;51.018;4.474;2022-08-01T10:51:55;1.90;;;0.60;;
22949;SDS011;11641;51.018;4.474;2022-08-01T10:54:26;3.47;;;0.65;;
22949;SDS011;11641;51.018;4.474;2022-08-01T10:56:53;3.95;;;0.70;;
22949;SDS011;11641;51.018;4.474;2022-08-01T10:59:22;3.47;;;0.73;;
22949;SDS011;11641;51.018;4.474;2022-08-01T11:01:56;4.78;;;0.77;;
22949;SDS011;11641;51.018;4.474;2022-08-01T11:04:33;3.50;;;0.90;;
22949;SDS011;11641;51.018;4.474;2022-08-01T11:07:43;1.42;;;0.77;;
22949;SDS011;11641;51.018;4.474;2022-08-01T11:10:16;2.37;;;0.70;;
22949;SDS011;11641;51.018;4.474;2022-08-01T11:12:53;2.60;;;0.60;;
22949;SDS011;11641;51.018;4.474;2022-08-01T11:15:21;2.50;;;0.60;;
22949;SDS011;11641;51.018;4.474;2022-08-01T11:17:55;2.70;;;0.67;;
22949;SDS011;11641;51.018;4.474;2022-08-01T11:20:23;2.67;;;0.60;;
22949;SDS011;11641;51.018;4.474;2022-08-01T11:28:18;2.92;;;0.57;;
22949;SDS011;11641;51.018;4.474;2022-08-01T11:30:50;4.95;;;0.70;;
22949;SDS011;11641;51.018;4.474;2022-08-01T11:38:37;3.03;;;0.63;;
22949;SDS011;11641;51.018;4.474;2022-08-01T11:41:15;1.35;;;0.60;;
22949;SDS011;11641;51.018;4.474;2022-08-01T11:44:04;3.85;;;0.63;;
22949;SDS011;11641;51.018;4.474;2022-08-01T11:51:56;3.15;;;0.70;;
22949;SDS011;11641;51.018;4.474;2022-08-01T11:54:28;3.03;;;0.50;;
22949;SDS011;11641;51.018;4.474;2022-08-01T11:56:59;4.72;;;0.90;;
22949;SDS011;11641;51.018;4.474;2022-08-01T11:59:27;4.25;;;0.85;;
22949;SDS011;11641;51.018;4.474;2022-08-01T12:01:54;2.17;;;0.50;;
22949;SDS011;11641;51.018;4.474;2022-08-01T12:04:19;3.10;;;0.70;;
22949;SDS011;11641;51.018;4.474;2022-08-01T12:06:45;1.25;;;0.40;;
22949;SDS011;11641;51.018;4.474;2022-08-01T12:09:22;2.55;;;0.65;;
22949;SDS011;11641;51.018;4.474;2022-08-01T12:11:51;1.80;;;0.50;;
22949;SDS011;11641;51.018;4.474;2022-08-01T12:14:20;3.28;;;0.50;;
22949;SDS011;11641;51.018;4.474;2022-08-01T12:16:50;2.15;;;0.50;;
22949;SDS011;11641;51.018;4.474;2022-08-01T12:19:21;3.05;;;0.60;;
22949;SDS011;11641;51.018;4.474;2022-08-01T12:24:38;3.70;;;0.50;;
22949;SDS011;11641;51.018;4.474;2022-08-01T12:27:06;1.80;;;0.40;;
22949;SDS011;11641;51.018;4.474;2022-08-01T12:29:37;2.42;;;0.50;;
22949;SDS011;11641;51.018;4.474;2022-08-01T12:32:10;1.55;;;0.70;;
22949;SDS011;11641;51.018;4.474;2022-08-01T12:35:00;1.42;;;0.50;;
22949;SDS011;11641;51.018;4.474;2022-08-01T12:37:39;3.83;;;0.70;;
22949;SDS011;11641;51.018;4.474;2022-08-01T12:40:14;3.67;;;0.63;;
22949;SDS011;11641;51.018;4.474;2022-08-01T12:42:51;2.58;;;0.50;;
22949;SDS011;11641;51.018;4.474;2022-08-01T12:45:19;3.03;;;0.70;;
22949;SDS011;11641;51.018;4.474;2022-08-01T12:48:03;3.87;;;0.70;;
22949;SDS011;11641;51.018;4.474;2022-08-01T12:50:33;1.23;;;0.50;;
22949;SDS011;11641;51.018;4.474;2022-08-01T12:53:01;2.83;;;0.50;;
22949;SDS011;11641;51.018;4.474;2022-08-01T12:55:27;5.35;;;0.90;;
22949;SDS011;11641;51.018;4.474;2022-08-01T12:58:09;2.88;;;0.80;;
22949;SDS011;11641;51.018;4.474;2022-08-01T13:00:41;1.55;;;0.60;;
22949;SDS011;11641;51.018;4.474;2022-08-01T13:03:12;3.42;;;0.68;;
22949;SDS011;11641;51.018;4.474;2022-08-01T13:05:55;1.58;;;0.60;;
22949;SDS011;11641;51.018;4.474;2022-08-01T13:08:30;5.65;;;0.90;;
22949;SDS011;11641;51.018;4.474;2022-08-01T13:11:09;1.48;;;0.68;;
22949;SDS011;11641;51.018;4.474;2022-08-01T13:13:50;4.88;;;0.40;;
22949;SDS011;11641;51.018;4.474;2022-08-01T13:16:26;3.70;;;0.70;;
22949;SDS011;11641;51.018;4.474;2022-08-01T13:18:55;2.05;;;0.60;;
22949;SDS011;11641;51.018;4.474;2022-08-01T13:21:26;1.85;;;0.50;;
22949;SDS011;11641;51.018;4.474;2022-08-01T13:24:05;2.20;;;0.60;;
22949;SDS011;11641;51.018;4.474;2022-08-01T13:26:45;2.28;;;0.60;;
22949;SDS011;11641;51.018;4.474;2022-08-01T13:29:13;1.98;;;0.70;;
22949;SDS011;11641;51.018;4.474;2022-08-01T13:31:44;1.08;;;0.50;;
22949;SDS011;11641;51.018;4.474;2022-08-01T13:34:11;3.13;;;0.50;;
22949;SDS011;11641;51.018;4.474;2022-08-01T13:36:40;0.52;;;0.32;;
22949;SDS011;11641;51.018;4.474;2022-08-01T13:39:07;4.25;;;0.73;;
22949;SDS011;11641;51.018;4.474;2022-08-01T13:41:53;1.17;;;0.55;;
22949;SDS011;11641;51.018;4.474;2022-08-01T13:44:18;3.15;;;0.60;;
22949;SDS011;11641;51.018;4.474;2022-08-01T13:46:44;1.15;;;0.45;;
22949;SDS011;11641;51.018;4.474;2022-08-01T13:49:12;2.33;;;0.30;;
22949;SDS011;11641;51.018;4.474;2022-08-01T13:51:38;2.97;;;0.65;;
22949;SDS011;11641;51.018;4.474;2022-08-01T13:54:07;3.40;;;0.45;;
22949;SDS011;11641;51.018;4.474;2022-08-01T13:56:33;6.13;;;0.60;;
22949;SDS011;11641;51.018;4.474;2022-08-01T13:58:59;2.72;;;0.38;;
22949;SDS011;11641;51.018;4.474;2022-08-01T14:01:25;3.17;;;0.45;;
22949;SDS011;11641;51.018;4.474;2022-08-01T14:03:52;4.50;;;0.50;;
22949;SDS011;11641;51.018;4.474;2022-08-01T14:06:18;1.55;;;0.40;;
22949;SDS011;11641;51.018;4.474;2022-08-01T14:08:47;3.47;;;0.50;;
22949;SDS011;11641;51.018;4.474;2022-08-01T14:11:18;2.03;;;0.45;;
22949;SDS011;11641;51.018;4.474;2022-08-01T14:13:44;2.55;;;0.50;;
22949;SDS011;11641;51.018;4.474;2022-08-01T14:16:11;3.38;;;0.45;;
22949;SDS011;11641;51.018;4.474;2022-08-01T14:18:37;1.23;;;0.47;;
22949;SDS011;11641;51.018;4.474;2022-08-01T14:21:05;4.75;;;0.40;;
22949;SDS011;11641;51.018;4.474;2022-08-01T14:23:31;2.88;;;0.60;;
22949;SDS011;11641;51.018;4.474;2022-08-01T14:25:59;1.45;;;0.43;;
22949;SDS011;11641;51.018;4.474;2022-08-01T14:28:25;1.13;;;0.43;;
22949;SDS011;11641;51.018;4.474;2022-08-01T14:30:53;3.88;;;0.50;;
22949;SDS011;11641;51.018;4.474;2022-08-01T14:33:20;2.53;;;0.47;;
22949;SDS011;11641;51.018;4.474;2022-08-01T14:35:49;1.17;;;0.43;;
22949;SDS011;11641;51.018;4.474;2022-08-01T14:38:14;0.85;;;0.40;;
22949;SDS011;11641;51.018;4.474;2022-08-01T14:40:41;1.52;;;0.43;;
22949;SDS011;11641;51.018;4.474;2022-08-01T14:43:07;2.83;;;0.40;;
22949;SDS011;11641;51.018;4.474;2022-08-01T14:45:35;1.38;;;0.50;;
22949;SDS011;11641;51.018;4.474;2022-08-01T14:48:00;1.08;;;0.45;;
22949;SDS011;11641;51.018;4.474;2022-08-01T14:50:32;1.20;;;0.40;;
22949;SDS011;11641;51.018;4.474;2022-08-01T14:52:57;1.83;;;0.50;;
22949;SDS011;11641;51.018;4.474;2022-08-01T14:55:23;2.60;;;0.50;;
22949;SDS011;11641;51.018;4.474;2022-08-01T14:57:52;3.08;;;0.52;;
22949;SDS011;11641;51.018;4.474;2022-08-01T15:00:18;1.65;;;0.50;;
22949;SDS011;11641;51.018;4.474;2022-08-01T15:02:44;2.42;;;0.50;;
22949;SDS011;11641;51.018;4.474;2022-08-01T15:05:14;2.40;;;0.50;;
22949;SDS011;11641;51.018;4.474;2022-08-01T15:07:39;3.15;;;0.50;;
22949;SDS011;11641;51.018;4.474;2022-08-01T15:10:05;4.32;;;0.85;;
22949;SDS011;11641;51.018;4.474;2022-08-01T15:12:31;3.80;;;0.50;;
22949;SDS011;11641;51.018;4.474;2022-08-01T15:14:59;2.42;;;0.43;;
22949;SDS011;11641;51.018;4.474;2022-08-01T15:17:26;1.15;;;0.52;;
22949;SDS011;11641;51.018;4.474;2022-08-01T15:20:00;3.28;;;0.60;;
22949;SDS011;11641;51.018;4.474;2022-08-01T15:22:27;1.63;;;0.60;;
22949;SDS011;11641;51.018;4.474;2022-08-01T15:24:54;2.92;;;0.38;;
22949;SDS011;11641;51.018;4.474;2022-08-01T15:27:21;2.13;;;0.35;;
22949;SDS011;11641;51.018;4.474;2022-08-01T15:29:49;1.45;;;0.43;;
22949;SDS011;11641;51.018;4.474;2022-08-01T15:32:15;3.03;;;0.47;;
22949;SDS011;11641;51.018;4.474;2022-08-01T15:34:41;2.50;;;0.52;;
22949;SDS011;11641;51.018;4.474;2022-08-01T15:37:07;1.38;;;0.40;;